createdAt,value
2022-10-10T00:00:34.364Z,11.90
2022-10-10T00:04:35.854Z,11.70
2022-10-10T00:08:37.071Z,11.70
2022-10-10T00:12:38.279Z,11.70
2022-10-10T00:16:39.471Z,11.70
2022-10-10T00:20:40.677Z,11.60
2022-10-10T00:24:41.764Z,11.70
2022-10-10T00:28:42.994Z,11.70
2022-10-10T00:32:44.499Z,11.70
2022-10-10T00:36:45.695Z,11.70
2022-10-10T00:40:56.356Z,11.70
2022-10-10T00:45:24.128Z,11.70
2022-10-10T00:49:28.560Z,11.70
2022-10-10T00:53:33.241Z,11.70
2022-10-10T00:57:34.327Z,11.60
2022-10-10T01:01:35.526Z,11.50
2022-10-10T01:05:37.738Z,11.60
2022-10-10T01:09:41.330Z,11.40
2022-10-10T01:13:48.947Z,11.40
2022-10-10T01:18:03.226Z,11.40
2022-10-10T01:22:23.663Z,11.40
2022-10-10T01:26:34.906Z,11.40
2022-10-10T01:30:36.190Z,11.40
2022-10-10T01:35:08.350Z,11.30
2022-10-10T01:39:19.505Z,11.40
2022-10-10T01:43:20.717Z,11.40
2022-10-10T01:47:22.481Z,11.30
2022-10-10T01:51:42.540Z,11.30
2022-10-10T01:56:04.059Z,11.10
2022-10-10T02:00:08.973Z,11.10
2022-10-10T02:04:25.726Z,11.00
2022-10-10T02:08:39.480Z,11.00
2022-10-10T02:12:40.972Z,10.90
2022-10-10T02:16:45.874Z,10.90
2022-10-10T02:20:48.247Z,11.00
2022-10-10T02:24:51.766Z,11.10
2022-10-10T02:29:03.013Z,11.00
2022-10-10T02:33:06.025Z,11.00
2022-10-10T02:37:11.791Z,10.70
2022-10-10T02:41:16.378Z,10.50
2022-10-10T02:45:19.180Z,10.50
2022-10-10T02:49:26.649Z,10.50
2022-10-10T02:53:27.834Z,10.50
2022-10-10T02:57:29.201Z,10.40
2022-10-10T03:01:30.347Z,10.60
2022-10-10T03:05:31.493Z,10.60
2022-10-10T03:09:32.999Z,10.60
2022-10-10T03:13:34.105Z,10.60
2022-10-10T03:17:35.167Z,10.60
2022-10-10T03:21:36.357Z,10.60
2022-10-10T03:25:43.382Z,10.60
2022-10-10T03:29:44.575Z,10.60
2022-10-10T03:33:45.749Z,10.50
2022-10-10T03:37:46.872Z,10.50
2022-10-10T03:41:49.756Z,10.40
2022-10-10T03:45:51.061Z,10.30
2022-10-10T03:49:52.241Z,10.20
2022-10-10T03:53:53.923Z,10.20
2022-10-10T03:57:55.108Z,10.20
2022-10-10T04:01:56.204Z,10.20
2022-10-10T04:05:57.381Z,10.10
2022-10-10T04:09:58.471Z,10.10
2022-10-10T04:13:59.540Z,10.20
2022-10-10T04:18:00.638Z,10.30
2022-10-10T04:22:01.797Z,10.20
2022-10-10T04:26:02.909Z,10.30
2022-10-10T04:30:05.491Z,10.30
2022-10-10T04:34:06.584Z,10.20
2022-10-10T04:38:07.766Z,10.20
2022-10-10T04:42:08.858Z,10.20
2022-10-10T04:46:10.157Z,10.10
2022-10-10T04:50:11.558Z,10.20
2022-10-10T04:54:12.939Z,10.20
2022-10-10T04:58:14.339Z,10.10
2022-10-10T05:02:15.506Z,10.20
2022-10-10T05:06:16.708Z,10.10
2022-10-10T05:10:17.824Z,10.00
2022-10-10T05:14:19.015Z,10.00
2022-10-10T05:18:20.696Z,9.90
2022-10-10T05:22:21.797Z,9.90
2022-10-10T05:26:22.980Z,9.80
2022-10-10T05:30:24.067Z,9.90
2022-10-10T05:34:25.301Z,9.80
2022-10-10T05:38:26.477Z,9.90
2022-10-10T05:42:27.678Z,9.90
2022-10-10T05:46:28.850Z,10.00
2022-10-10T05:50:38.352Z,9.90
2022-10-10T05:54:39.625Z,9.90
2022-10-10T05:58:40.838Z,9.90
2022-10-10T06:02:42.043Z,9.80
2022-10-10T06:06:43.201Z,9.80
2022-10-10T06:10:45.777Z,9.80
2022-10-10T06:14:46.929Z,9.90
2022-10-10T06:18:48.313Z,9.90
2022-10-10T06:22:49.817Z,10.00
2022-10-10T06:26:51.281Z,10.00
2022-10-10T06:30:52.383Z,10.10
2022-10-10T06:34:53.462Z,10.10
2022-10-10T06:38:54.859Z,10.20
2022-10-10T06:42:55.918Z,10.20
2022-10-10T06:46:57.016Z,10.00
2022-10-10T06:51:07.144Z,10.10
2022-10-10T06:55:08.796Z,10.20
2022-10-10T06:59:09.974Z,10.30
2022-10-10T07:03:12.077Z,10.60
2022-10-10T07:07:13.166Z,11.00
2022-10-10T07:11:14.255Z,11.30
2022-10-10T07:15:15.713Z,11.50
2022-10-10T07:19:18.398Z,11.80
2022-10-10T07:23:19.582Z,12.10
2022-10-10T07:27:20.667Z,12.50
2022-10-10T07:31:21.883Z,12.80
2022-10-10T07:35:23.682Z,12.90
2022-10-10T07:39:25.755Z,12.80
2022-10-10T07:43:26.954Z,12.90
2022-10-10T07:47:28.226Z,12.90
2022-10-10T07:51:29.345Z,13.10
2022-10-10T07:55:30.527Z,13.00
2022-10-10T07:59:31.899Z,13.80
2022-10-10T08:03:33.192Z,14.40
2022-10-10T08:07:34.777Z,15.10
2022-10-10T08:11:36.645Z,15.50
2022-10-10T08:15:41.169Z,15.70
2022-10-10T08:19:42.336Z,15.30
2022-10-10T08:23:44.379Z,15.40
2022-10-10T08:27:45.821Z,16.20
2022-10-10T08:31:47.085Z,16.50
2022-10-10T08:35:48.351Z,16.30
2022-10-10T08:39:49.508Z,15.80
2022-10-10T08:44:03.868Z,15.60
2022-10-10T08:48:08.794Z,15.40
2022-10-10T08:52:31.521Z,15.60
2022-10-10T08:56:34.386Z,15.40
2022-10-10T09:00:41.677Z,15.50
2022-10-10T09:04:43.281Z,15.50
2022-10-10T09:08:51.257Z,16.10
2022-10-10T09:13:18.676Z,16.80
2022-10-10T09:17:43.636Z,17.10
2022-10-10T09:21:45.778Z,17.50
2022-10-10T09:25:59.999Z,18.40
2022-10-10T09:30:19.972Z,18.50
2022-10-10T09:34:40.406Z,19.10
2022-10-10T09:38:48.277Z,19.50
2022-10-10T09:42:49.683Z,19.80
2022-10-10T09:46:51.679Z,19.70
2022-10-10T09:50:53.067Z,19.40
2022-10-10T09:55:01.486Z,19.90
2022-10-10T09:59:02.703Z,19.70
2022-10-10T10:03:17.120Z,20.20
2022-10-10T10:07:27.343Z,19.90
2022-10-10T10:11:32.357Z,19.80
2022-10-10T10:15:33.531Z,19.50
2022-10-10T10:19:37.853Z,19.50
2022-10-10T10:24:00.717Z,20.10
2022-10-10T10:28:17.434Z,20.90
2022-10-10T10:32:49.435Z,21.40
2022-10-10T10:36:57.498Z,21.50
2022-10-10T10:41:11.231Z,21.50
2022-10-10T10:45:17.547Z,21.60
2022-10-10T10:49:34.271Z,21.40
2022-10-10T10:53:57.372Z,21.00
2022-10-10T11:02:57.627Z,21.60
2022-10-10T11:07:18.013Z,22.20
2022-10-10T11:11:15.606Z,22.20
2022-10-10T11:16:01.226Z,22.50
2022-10-10T11:19:42.275Z,22.70
2022-10-10T11:23:47.503Z,22.60
2022-10-10T11:28:01.586Z,22.60
2022-10-10T11:32:09.688Z,22.40
2022-10-10T11:36:26.829Z,22.80
2022-10-10T11:40:43.863Z,22.70
2022-10-10T11:44:55.279Z,22.20
2022-10-10T11:49:15.315Z,22.70
2022-10-10T11:53:23.375Z,23.10
2022-10-10T11:57:31.465Z,23.20
2022-10-10T12:01:39.273Z,23.50
2022-10-10T12:05:44.450Z,23.20
2022-10-10T12:09:49.418Z,23.20
2022-10-10T12:13:57.290Z,23.60
2022-10-10T12:17:59.037Z,23.00
2022-10-10T12:22:05.544Z,23.20
2022-10-10T12:26:10.533Z,23.10
2022-10-10T12:30:18.530Z,22.90
2022-10-10T12:34:49.656Z,23.00
2022-10-10T12:39:07.890Z,23.20
2022-10-10T12:43:40.079Z,23.00
2022-10-10T12:48:05.569Z,23.30
2022-10-10T12:52:04.125Z,22.90
2022-10-10T12:56:06.086Z,23.10
2022-10-10T13:00:20.183Z,23.50
2022-10-10T13:04:23.494Z,23.30
2022-10-10T13:08:27.330Z,23.40
2022-10-10T13:12:31.730Z,23.40
2022-10-10T13:16:36.737Z,23.60
2022-10-10T13:20:39.763Z,23.30
2022-10-10T13:24:41.668Z,23.50
2022-10-10T13:28:44.115Z,22.60
2022-10-10T13:32:45.479Z,22.80
2022-10-10T13:36:46.685Z,22.50
2022-10-10T13:40:48.176Z,22.60
2022-10-10T13:44:52.270Z,22.60
2022-10-10T13:48:54.061Z,22.60
2022-10-10T13:53:25.274Z,22.50
2022-10-10T13:57:27.127Z,22.60
2022-10-10T14:01:34.787Z,22.50
2022-10-10T14:05:35.960Z,22.50
2022-10-10T14:09:40.877Z,22.50
2022-10-10T14:13:48.552Z,22.40
2022-10-10T14:17:49.735Z,22.70
2022-10-10T14:21:50.841Z,22.70
2022-10-10T14:25:52.618Z,22.70
2022-10-10T14:29:56.224Z,22.60
2022-10-10T14:33:57.772Z,22.60
2022-10-10T14:37:58.874Z,22.60
2022-10-10T14:42:02.002Z,22.60
2022-10-10T14:46:03.488Z,22.60
2022-10-10T14:50:17.386Z,22.20
2022-10-10T14:54:18.503Z,22.40
2022-10-10T14:58:21.688Z,22.50
2022-10-10T15:02:23.107Z,22.50
2022-10-10T15:06:24.287Z,22.50
2022-10-10T15:10:33.674Z,22.50
2022-10-10T15:14:28.467Z,22.40
2022-10-10T15:18:53.145Z,22.30
2022-10-10T15:22:33.113Z,22.10
2022-10-10T15:26:34.326Z,22.30
2022-10-10T15:30:38.413Z,22.40
2022-10-10T15:34:38.745Z,22.30
2022-10-10T15:38:39.962Z,22.10
2022-10-10T15:42:41.156Z,22.20
2022-10-10T15:46:44.418Z,22.30
2022-10-10T15:50:46.946Z,22.40
2022-10-10T15:54:52.281Z,22.10
2022-10-10T15:58:58.222Z,21.70
2022-10-10T16:02:59.535Z,21.70
2022-10-10T16:11:09.607Z,21.30
2022-10-10T16:15:11.157Z,21.30
2022-10-10T16:19:12.363Z,21.40
2022-10-10T16:23:13.601Z,21.50
2022-10-10T16:27:14.750Z,21.50
2022-10-10T16:31:18.579Z,21.10
2022-10-10T16:35:19.854Z,20.90
2022-10-10T16:39:21.109Z,20.80
2022-10-10T16:43:22.327Z,20.80
2022-10-10T16:47:23.514Z,20.70
2022-10-10T16:51:27.614Z,20.60
2022-10-10T16:55:29.168Z,20.40
2022-10-10T16:59:31.655Z,20.10
2022-10-10T17:03:32.860Z,19.90
2022-10-10T17:07:35.683Z,19.90
2022-10-10T17:11:36.890Z,19.90
2022-10-10T17:15:40.395Z,19.80
2022-10-10T17:19:41.592Z,19.70
2022-10-10T17:23:43.396Z,19.70
2022-10-10T17:27:44.596Z,19.70
2022-10-10T17:31:45.787Z,19.60
2022-10-10T17:35:48.094Z,19.60
2022-10-10T17:39:49.184Z,19.50
2022-10-10T17:43:50.762Z,19.40
2022-10-10T17:47:51.959Z,19.30
2022-10-10T17:51:53.055Z,19.30
2022-10-10T17:55:54.259Z,19.20
2022-10-10T17:59:55.454Z,19.30
2022-10-10T18:03:56.627Z,19.20
2022-10-10T18:07:57.835Z,19.20
2022-10-10T18:11:59.043Z,19.00
2022-10-10T18:16:07.402Z,18.90
2022-10-10T18:20:10.070Z,18.80
2022-10-10T18:24:11.424Z,18.80
2022-10-10T18:28:12.651Z,18.90
2022-10-10T18:32:13.810Z,18.90
2022-10-10T18:36:18.602Z,18.90
2022-10-10T18:40:19.890Z,18.80
2022-10-10T18:44:21.319Z,18.90
2022-10-10T18:48:24.586Z,18.80
2022-10-10T18:52:27.929Z,18.70
2022-10-10T18:56:33.055Z,18.70
2022-10-10T19:00:34.948Z,18.70
2022-10-10T19:04:36.271Z,18.80
2022-10-10T19:08:38.216Z,18.80
2022-10-10T19:12:43.952Z,18.70
2022-10-10T19:16:44.325Z,18.70
2022-10-10T19:20:45.780Z,18.60
2022-10-10T19:24:47.098Z,18.50
2022-10-10T19:28:48.332Z,18.50
2022-10-10T19:32:49.572Z,18.60
2022-10-10T19:36:50.675Z,18.30
2022-10-10T19:40:51.991Z,18.00
2022-10-10T19:44:53.089Z,18.10
2022-10-10T19:48:57.182Z,18.10
2022-10-10T19:53:00.895Z,18.10
2022-10-10T19:57:03.511Z,18.20
2022-10-10T20:01:06.892Z,18.20
2022-10-10T20:05:09.387Z,18.20
2022-10-10T20:09:11.342Z,18.20
2022-10-10T20:13:14.624Z,18.20
2022-10-10T20:17:15.883Z,18.10
2022-10-10T20:21:19.921Z,18.20
2022-10-10T20:25:21.112Z,18.10
2022-10-10T20:29:22.305Z,18.00
2022-10-10T20:33:23.503Z,18.10
2022-10-10T20:37:24.578Z,18.00
2022-10-10T20:41:28.708Z,18.00
2022-10-10T20:45:30.030Z,17.90
2022-10-10T20:49:31.140Z,18.00
2022-10-10T20:53:33.419Z,18.00
2022-10-10T20:57:34.554Z,17.90
2022-10-10T21:01:36.492Z,17.90
2022-10-10T21:05:37.779Z,17.70
2022-10-10T21:09:39.230Z,17.80
2022-10-10T21:13:43.029Z,17.80
2022-10-10T21:17:49.143Z,17.80
2022-10-10T21:21:50.354Z,17.80
2022-10-10T21:25:51.535Z,17.60
2022-10-10T21:29:52.741Z,17.50
2022-10-10T21:33:54.935Z,17.50
2022-10-10T21:37:56.151Z,17.40
2022-10-10T21:41:57.257Z,17.30
2022-10-10T21:46:04.756Z,17.30
2022-10-10T21:50:07.502Z,17.30
2022-10-10T21:54:09.238Z,17.50
2022-10-10T21:58:10.581Z,17.50
2022-10-10T22:02:11.815Z,17.50
2022-10-10T22:06:15.595Z,17.50
2022-10-10T22:10:18.493Z,17.50
2022-10-10T22:14:19.662Z,17.40
2022-10-10T22:18:20.847Z,17.40
2022-10-10T22:22:21.942Z,17.40
2022-10-10T22:26:23.190Z,17.30
2022-10-10T22:30:24.412Z,17.30
2022-10-10T22:34:25.590Z,17.30
2022-10-10T22:38:26.784Z,17.30
2022-10-10T22:42:27.966Z,17.10
2022-10-10T22:46:29.390Z,17.20
2022-10-10T22:50:30.563Z,17.20
2022-10-10T22:54:32.518Z,17.10
2022-10-10T22:58:33.685Z,17.20
2022-10-10T23:02:34.883Z,17.20
2022-10-10T23:06:36.653Z,17.20
2022-10-10T23:10:37.843Z,17.10
2022-10-10T23:14:39.017Z,17.10
2022-10-10T23:18:40.109Z,17.10
2022-10-10T23:22:41.285Z,17.10
2022-10-10T23:26:42.670Z,17.00
2022-10-10T23:30:45.342Z,16.80
2022-10-10T23:34:46.446Z,16.70
2022-10-10T23:38:47.622Z,16.40
2022-10-10T23:42:49.212Z,16.30
2022-10-10T23:46:50.388Z,16.30
2022-10-10T23:50:51.477Z,16.40
2022-10-10T23:54:52.647Z,16.50
2022-10-10T23:58:53.951Z,16.50
